Time;durP1;ratioP1;P1;durP2;ratioP2;P2;SDS_P1;SDS_P2;PMS_P1;PMS_P2;Temp;Humidity;BMP_temperature;BMP_pressure;BME280_temperature;BME280_humidity;BME280_pressure;Samples;Min_cycle;Max_cycle;Signal;HPM_P1;HPM_P2
2020/12/06 00:01:52;;;;;;;15.38;6.85;;;9.80;99.90;;;;;;5014222;28;20216;-61
2020/12/06 00:04:19;;;;;;;10.63;7.70;;;9.70;99.90;;;;;;5014777;28;20508;-61
2020/12/06 00:06:47;;;;;;;11.25;7.28;;;9.90;99.90;;;;;;5011810;28;20210;-61
2020/12/06 00:09:16;;;;;;;11.73;7.85;;;9.80;99.90;;;;;;5015469;28;20214;-61
2020/12/06 00:11:42;;;;;;;10.20;6.63;;;9.70;99.90;;;;;;5010787;28;20429;-60
2020/12/06 00:14:09;;;;;;;12.20;7.53;;;10.00;99.90;;;;;;5012276;28;20211;-61
2020/12/06 00:16:35;;;;;;;10.98;5.70;;;9.90;99.90;;;;;;5011788;28;20215;-61
2020/12/06 00:19:02;;;;;;;11.20;5.60;;;10.00;99.90;;;;;;5014228;28;20219;-61
2020/12/06 00:21:29;;;;;;;10.15;6.05;;;9.90;99.90;;;;;;5016281;28;20266;-61
2020/12/06 00:23:56;;;;;;;8.98;6.35;;;9.90;99.90;;;;;;5008389;28;20221;-61
2020/12/06 00:26:24;;;;;;;8.05;5.70;;;10.00;99.90;;;;;;5016434;28;20231;-61
2020/12/06 00:28:55;;;;;;;13.10;5.75;;;9.90;99.90;;;;;;5005344;28;20212;-61
2020/12/06 00:31:21;;;;;;;6.57;5.13;;;9.80;99.90;;;;;;5011994;28;20249;-62
2020/12/06 00:33:48;;;;;;;7.95;5.30;;;10.00;99.90;;;;;;5010137;28;20210;-61
2020/12/06 00:36:15;;;;;;;9.85;6.10;;;9.80;99.90;;;;;;5002742;28;20234;-61
2020/12/06 00:38:43;;;;;;;8.65;5.05;;;9.90;99.90;;;;;;5002513;28;20279;-61
2020/12/06 00:41:14;;;;;;;8.02;4.63;;;9.80;99.90;;;;;;5010860;28;20226;-62
2020/12/06 00:43:42;;;;;;;7.32;5.47;;;9.90;99.90;;;;;;5014636;28;20207;-61
2020/12/06 00:46:08;;;;;;;5.65;4.63;;;9.90;99.90;;;;;;5010535;28;20442;-60
2020/12/06 00:48:35;;;;;;;8.07;4.50;;;10.00;99.90;;;;;;5011634;28;20235;-61
2020/12/06 00:51:02;;;;;;;5.93;4.32;;;10.10;99.90;;;;;;5005816;28;20509;-61
2020/12/06 00:53:30;;;;;;;5.05;3.60;;;10.10;99.90;;;;;;5006940;28;20253;-61
2020/12/06 00:55:56;;;;;;;4.85;3.45;;;10.00;99.90;;;;;;5011356;28;20210;-61
2020/12/06 00:58:23;;;;;;;5.50;3.63;;;10.10;99.90;;;;;;5011262;28;20211;-61
2020/12/06 01:00:49;;;;;;;8.00;4.43;;;10.10;99.90;;;;;;5005431;28;20206;-61
2020/12/06 01:03:16;;;;;;;5.20;4.25;;;10.10;99.90;;;;;;5008374;28;20211;-62
2020/12/06 01:05:42;;;;;;;10.05;4.90;;;10.00;99.90;;;;;;5012012;28;20533;-61
2020/12/06 01:08:09;;;;;;;7.28;5.43;;;10.10;99.90;;;;;;5015530;28;20431;-61
2020/12/06 01:10:36;;;;;;;7.25;5.85;;;10.20;99.90;;;;;;5012124;28;20367;-60
2020/12/06 01:13:02;;;;;;;5.53;4.97;;;10.20;99.90;;;;;;5016292;28;20228;-61
2020/12/06 01:15:29;;;;;;;8.07;5.00;;;10.00;99.90;;;;;;5010806;28;20278;-61
2020/12/06 01:17:56;;;;;;;6.97;5.85;;;9.90;99.90;;;;;;5003939;28;20218;-61
2020/12/06 01:20:22;;;;;;;8.82;5.75;;;10.30;99.90;;;;;;5014074;28;20435;-61
2020/12/06 01:22:49;;;;;;;7.35;4.70;;;10.20;99.90;;;;;;5012261;28;20221;-61
2020/12/06 01:25:15;;;;;;;6.70;4.20;;;10.00;99.90;;;;;;5012231;28;20213;-61
2020/12/06 01:27:42;;;;;;;9.95;5.15;;;10.20;99.90;;;;;;5018312;28;20206;-61
2020/12/06 01:30:09;;;;;;;6.80;5.55;;;10.20;99.90;;;;;;5013027;28;20214;-60
2020/12/06 01:32:35;;;;;;;8.20;5.05;;;10.10;99.90;;;;;;5005727;28;20243;-61
2020/12/06 01:35:03;;;;;;;8.13;5.38;;;10.30;99.90;;;;;;5007170;28;20230;-61
2020/12/06 01:37:30;;;;;;;6.13;5.18;;;10.20;99.90;;;;;;5013964;28;20248;-61
2020/12/06 01:39:57;;;;;;;9.98;5.45;;;10.20;99.90;;;;;;5006846;28;20208;-61
2020/12/06 01:42:23;;;;;;;7.80;5.00;;;10.30;99.90;;;;;;5015222;28;20215;-61
2020/12/06 01:44:58;;;;;;;8.02;5.22;;;10.20;99.90;;;;;;5016413;28;20612;-60
2020/12/06 01:47:27;;;;;;;8.90;4.70;;;10.30;99.90;;;;;;5011972;28;20207;-61
2020/12/06 01:49:55;;;;;;;6.45;5.05;;;10.10;99.90;;;;;;5003524;28;20199;-61
2020/12/06 01:52:21;;;;;;;5.07;4.57;;;10.20;99.90;;;;;;5015932;28;20230;-61
2020/12/06 01:54:49;;;;;;;4.75;4.20;;;10.10;99.90;;;;;;5010596;28;20502;-61
2020/12/06 01:57:16;;;;;;;7.75;5.95;;;10.20;99.90;;;;;;5014597;28;20385;-61
2020/12/06 01:59:43;;;;;;;8.40;6.05;;;10.30;99.90;;;;;;5012771;28;20213;-61
2020/12/06 02:02:09;;;;;;;9.13;6.72;;;10.40;99.90;;;;;;5009863;28;20248;-61
2020/12/06 02:04:36;;;;;;;9.13;5.65;;;10.30;99.90;;;;;;5010116;28;20199;-60
2020/12/06 02:07:02;;;;;;;9.30;5.72;;;10.40;99.90;;;;;;5007391;28;20205;-60
2020/12/06 02:09:30;;;;;;;9.23;5.97;;;10.40;99.90;;;;;;5011893;28;20211;-60
2020/12/06 02:11:58;;;;;;;8.38;6.43;;;10.50;99.90;;;;;;5011948;28;20237;-59
2020/12/06 02:14:25;;;;;;;8.70;5.20;;;10.70;99.90;;;;;;5016449;28;20239;-61
2020/12/06 02:16:55;;;;;;;8.38;5.78;;;10.40;99.90;;;;;;5009510;28;20215;-60
2020/12/06 02:19:22;;;;;;;9.63;5.10;;;10.30;99.90;;;;;;5015902;28;20223;-60
2020/12/06 02:21:48;;;;;;;9.02;5.53;;;10.20;99.90;;;;;;5012344;28;20207;-60
2020/12/06 02:24:18;;;;;;;9.27;4.18;;;10.50;99.90;;;;;;5016103;28;20223;-61
2020/12/06 02:26:47;;;;;;;8.10;5.50;;;10.30;99.90;;;;;;5007294;28;20235;-61
2020/12/06 02:29:14;;;;;;;11.70;6.18;;;10.50;99.90;;;;;;5012139;28;20529;-61
2020/12/06 02:31:42;;;;;;;8.48;5.63;;;10.40;99.90;;;;;;5015813;28;20589;-61
2020/12/06 02:34:11;;;;;;;9.10;5.75;;;10.40;99.90;;;;;;5009184;28;20430;-61
2020/12/06 02:36:39;;;;;;;6.75;5.05;;;10.50;99.90;;;;;;5009556;28;20227;-61
2020/12/06 02:39:11;;;;;;;8.50;5.20;;;10.40;99.90;;;;;;5007116;28;20422;-61
2020/12/06 02:41:40;;;;;;;10.07;7.75;;;10.30;99.90;;;;;;5010893;28;20250;-60
2020/12/06 02:44:08;;;;;;;7.13;5.03;;;10.40;99.90;;;;;;5013086;28;20231;-61
2020/12/06 02:46:35;;;;;;;9.23;5.55;;;10.20;99.90;;;;;;5014099;28;20207;-60
2020/12/06 02:49:02;;;;;;;9.18;6.20;;;10.30;99.90;;;;;;5014389;28;20244;-62
2020/12/06 02:51:29;;;;;;;9.80;5.88;;;10.50;99.90;;;;;;5014659;28;20231;-61
2020/12/06 02:53:56;;;;;;;11.05;6.97;;;10.30;99.90;;;;;;5013592;28;20208;-61
2020/12/06 02:56:22;;;;;;;9.50;6.90;;;10.20;99.90;;;;;;5012844;28;20278;-60
2020/12/06 02:58:49;;;;;;;11.95;7.20;;;10.40;99.90;;;;;;5014900;28;20537;-61
2020/12/06 03:01:16;;;;;;;10.13;7.10;;;10.20;99.90;;;;;;5013736;28;20208;-60
2020/12/06 03:03:43;;;;;;;9.70;6.60;;;10.10;99.90;;;;;;5010382;28;20569;-60
2020/12/06 03:06:11;;;;;;;10.57;7.03;;;10.10;99.90;;;;;;4999818;28;20215;-61
2020/12/06 03:08:38;;;;;;;8.63;6.40;;;10.30;99.90;;;;;;5006900;28;20482;-61
2020/12/06 03:11:07;;;;;;;7.80;5.47;;;10.20;99.90;;;;;;5008212;28;20202;-60
2020/12/06 03:13:34;;;;;;;8.60;6.18;;;10.20;99.90;;;;;;5018199;28;20213;-61
2020/12/06 03:16:05;;;;;;;11.27;7.38;;;10.10;99.90;;;;;;5013547;28;20222;-59
2020/12/06 03:18:31;;;;;;;8.05;5.72;;;10.00;99.90;;;;;;5013223;28;20752;-60
2020/12/06 03:20:59;;;;;;;8.90;6.95;;;9.90;99.90;;;;;;5015942;28;20203;-59
2020/12/06 03:23:26;;;;;;;10.35;7.70;;;10.00;99.90;;;;;;5009239;28;20447;-60
2020/12/06 03:25:53;;;;;;;10.38;6.95;;;9.70;99.90;;;;;;5013884;28;20214;-59
2020/12/06 03:28:19;;;;;;;12.65;6.00;;;9.90;99.90;;;;;;5011425;28;20199;-59
2020/12/06 03:30:46;;;;;;;11.18;7.95;;;10.10;99.90;;;;;;5013269;28;20230;-60
2020/12/06 03:33:12;;;;;;;11.52;7.55;;;10.00;99.90;;;;;;5012742;28;20233;-60
2020/12/06 03:35:39;;;;;;;11.90;7.38;;;9.80;99.90;;;;;;5007241;28;20230;-60
2020/12/06 03:38:06;;;;;;;16.02;8.10;;;9.70;99.90;;;;;;5009451;28;20206;-60
2020/12/06 03:40:33;;;;;;;12.23;7.30;;;9.70;99.90;;;;;;5010443;28;20219;-61
2020/12/06 03:42:59;;;;;;;9.05;7.38;;;9.90;99.90;;;;;;5007783;28;20211;-61
2020/12/06 03:45:26;;;;;;;15.13;6.50;;;9.80;99.90;;;;;;5019974;28;20206;-60
2020/12/06 03:47:55;;;;;;;11.70;6.93;;;9.80;99.90;;;;;;5011909;28;20469;-61
2020/12/06 03:50:22;;;;;;;12.30;7.97;;;9.60;99.90;;;;;;5013159;28;20218;-62
2020/12/06 03:52:49;;;;;;;12.60;7.57;;;9.60;99.90;;;;;;5019224;28;20261;-61
2020/12/06 03:55:16;;;;;;;9.40;6.63;;;9.50;99.90;;;;;;5011237;28;20207;-60
2020/12/06 03:57:43;;;;;;;11.38;7.63;;;9.80;99.90;;;;;;5016153;28;20211;-60
2020/12/06 04:00:10;;;;;;;11.80;7.30;;;9.80;99.90;;;;;;5010776;28;20217;-60
2020/12/06 04:02:36;;;;;;;9.30;5.80;;;9.70;99.90;;;;;;5017679;28;20202;-60
2020/12/06 04:05:03;;;;;;;10.40;6.85;;;9.60;99.90;;;;;;5010732;28;20204;-59
2020/12/06 04:07:30;;;;;;;7.80;5.47;;;9.80;99.90;;;;;;5006422;28;20217;-60
2020/12/06 04:09:56;;;;;;;11.90;6.95;;;9.70;99.90;;;;;;5014731;28;20211;-60
2020/12/06 04:12:23;;;;;;;11.00;7.20;;;9.80;99.90;;;;;;5007970;28;20238;-60
2020/12/06 04:14:49;;;;;;;17.10;6.72;;;9.80;99.90;;;;;;5011031;28;20544;-61
2020/12/06 04:17:16;;;;;;;9.30;5.90;;;9.60;99.90;;;;;;5012470;28;20207;-60
2020/12/06 04:19:42;;;;;;;9.88;6.97;;;9.60;99.90;;;;;;5002108;28;20210;-60
2020/12/06 04:22:09;;;;;;;8.07;6.13;;;9.60;99.90;;;;;;5013032;28;20594;-62
2020/12/06 04:24:35;;;;;;;11.98;6.38;;;9.70;99.90;;;;;;5019078;28;20207;-59
2020/12/06 04:27:02;;;;;;;8.73;6.80;;;9.70;99.90;;;;;;5015057;28;20215;-60
2020/12/06 04:29:28;;;;;;;16.00;7.07;;;9.60;99.90;;;;;;5014341;28;20207;-61
2020/12/06 04:31:55;;;;;;;12.18;7.90;;;9.50;99.90;;;;;;5013949;28;20230;-60
2020/12/06 04:34:22;;;;;;;11.38;6.60;;;9.70;99.90;;;;;;5012595;28;20210;-60
2020/12/06 04:36:48;;;;;;;14.70;6.43;;;9.70;99.90;;;;;;5014906;28;20257;-60
2020/12/06 04:39:16;;;;;;;10.68;5.88;;;9.70;99.90;;;;;;5009218;28;20207;-59
2020/12/06 04:41:43;;;;;;;9.20;6.35;;;9.70;99.90;;;;;;5012776;28;20217;-60
2020/12/06 04:44:10;;;;;;;12.93;6.90;;;9.50;99.90;;;;;;5010734;28;20229;-59
2020/12/06 04:46:38;;;;;;;6.93;5.25;;;9.70;99.90;;;;;;5016161;28;20208;-60
2020/12/06 04:49:05;;;;;;;7.00;6.30;;;9.70;99.90;;;;;;5015531;28;20240;-60
2020/12/06 04:51:43;;;;;;;9.95;6.63;;;9.70;99.90;;;;;;5016597;28;20272;-60
2020/12/06 04:54:11;;;;;;;8.30;5.68;;;9.80;99.90;;;;;;5011746;28;20213;-60
2020/12/06 04:56:38;;;;;;;8.85;6.40;;;10.00;99.90;;;;;;5012831;28;20207;-60
2020/12/06 04:59:06;;;;;;;13.65;6.03;;;10.10;99.90;;;;;;5015214;28;20548;-59
2020/12/06 05:01:38;;;;;;;11.43;5.90;;;10.10;99.90;;;;;;5010052;28;20224;-60
2020/12/06 05:04:13;;;;;;;11.63;6.75;;;10.50;99.90;;;;;;5008889;28;20200;-59
2020/12/06 05:06:42;;;;;;;13.02;7.80;;;9.90;99.90;;;;;;5011493;28;20214;-60
2020/12/06 05:09:13;;;;;;;11.82;6.35;;;9.90;99.90;;;;;;5017137;28;20213;-59
2020/12/06 05:11:42;;;;;;;8.07;4.95;;;9.90;99.90;;;;;;5012804;28;20254;-61
2020/12/06 05:14:09;;;;;;;9.30;6.78;;;10.10;99.90;;;;;;5008094;28;20302;-59
2020/12/06 05:16:38;;;;;;;6.43;5.15;;;9.90;99.90;;;;;;5013113;28;20207;-59
2020/12/06 05:19:07;;;;;;;9.40;5.75;;;10.10;99.90;;;;;;5008607;28;20215;-61
2020/12/06 05:21:42;;;;;;;8.25;6.30;;;10.00;99.90;;;;;;5010619;28;20224;-60
2020/12/06 05:24:09;;;;;;;7.65;6.15;;;10.10;99.90;;;;;;5010482;28;20454;-61
2020/12/06 05:26:35;;;;;;;10.65;6.10;;;10.10;99.90;;;;;;5011787;28;20228;-60
2020/12/06 05:29:03;;;;;;;11.15;7.97;;;9.90;99.90;;;;;;5011837;28;20564;-60
2020/12/06 05:31:30;;;;;;;10.77;7.18;;;9.90;99.90;;;;;;5012849;28;20207;-60
2020/12/06 05:33:57;;;;;;;12.45;6.22;;;10.00;99.90;;;;;;5011797;28;20212;-60
2020/12/06 05:36:23;;;;;;;11.10;6.45;;;9.90;99.90;;;;;;5013229;28;20442;-61
2020/12/06 05:38:50;;;;;;;9.85;8.07;;;9.90;99.90;;;;;;5010510;28;20250;-61
2020/12/06 05:41:17;;;;;;;12.68;7.50;;;9.90;99.90;;;;;;5013081;28;20213;-60
2020/12/06 05:43:44;;;;;;;19.10;8.05;;;10.00;99.90;;;;;;5013051;28;20274;-60
2020/12/06 05:46:14;;;;;;;9.45;6.35;;;9.90;99.90;;;;;;5005282;28;20231;-60
2020/12/06 05:48:42;;;;;;;12.05;6.50;;;10.00;99.90;;;;;;5011320;28;20557;-60
2020/12/06 05:51:11;;;;;;;11.82;6.35;;;10.00;99.90;;;;;;5014284;28;20199;-66
2020/12/06 05:53:38;;;;;;;8.60;6.30;;;9.80;99.90;;;;;;5013469;28;20241;-60
2020/12/06 05:56:13;;;;;;;11.43;8.70;;;9.80;99.90;;;;;;5009640;28;20207;-60
2020/12/06 05:58:42;;;;;;;8.50;6.35;;;9.90;99.90;;;;;;5014052;28;20224;-60
2020/12/06 06:01:12;;;;;;;8.77;7.28;;;9.90;99.90;;;;;;4998824;28;20517;-60
2020/12/06 06:03:53;;;;;;;9.70;6.88;;;9.80;99.90;;;;;;5013075;28;20260;-60
2020/12/06 06:06:38;;;;;;;13.98;7.57;;;10.00;99.90;;;;;;5010226;28;20213;-60
2020/12/06 06:09:05;;;;;;;8.02;6.43;;;10.00;99.90;;;;;;5009543;28;20207;-60
2020/12/06 06:11:34;;;;;;;7.63;6.32;;;10.10;99.90;;;;;;5010541;28;20279;-60
2020/12/06 06:14:04;;;;;;;8.18;5.82;;;10.00;99.90;;;;;;5006481;28;20212;-62
2020/12/06 06:16:32;;;;;;;12.50;6.30;;;10.00;99.90;;;;;;5010504;28;20207;-60
2020/12/06 06:19:04;;;;;;;7.43;5.93;;;10.10;99.90;;;;;;5008800;28;20212;-60
2020/12/06 06:21:38;;;;;;;9.45;6.80;;;10.10;99.90;;;;;;5015033;28;20598;-60
2020/12/06 06:24:13;;;;;;;7.68;5.78;;;9.90;99.90;;;;;;5010904;28;20207;-61
2020/12/06 06:26:42;;;;;;;9.85;6.20;;;10.10;99.90;;;;;;5011569;28;20206;-60
2020/12/06 06:29:13;;;;;;;8.07;5.80;;;10.00;99.90;;;;;;5011264;28;20207;-60
2020/12/06 06:31:42;;;;;;;11.80;5.53;;;10.00;99.90;;;;;;5014949;28;20211;-59
2020/12/06 06:34:09;;;;;;;11.35;6.95;;;10.10;99.90;;;;;;5009097;28;20212;-60
2020/12/06 06:36:36;;;;;;;6.82;5.78;;;10.00;99.90;;;;;;5000650;28;20234;-62
2020/12/06 06:39:04;;;;;;;6.50;5.38;;;10.10;99.90;;;;;;5002331;28;20211;-60
2020/12/06 06:41:33;;;;;;;7.78;6.20;;;10.10;99.90;;;;;;5005421;28;20262;-61
2020/12/06 06:44:04;;;;;;;6.72;5.38;;;10.10;99.90;;;;;;5005432;28;20243;-61
2020/12/06 06:46:35;;;;;;;8.90;5.90;;;10.20;99.90;;;;;;5013094;28;20246;-61
2020/12/06 06:49:10;;;;;;;6.97;6.28;;;10.00;99.90;;;;;;5004535;28;20247;-60
2020/12/06 06:51:37;;;;;;;6.05;5.18;;;10.10;99.90;;;;;;5017349;28;20206;-61
2020/12/06 06:54:08;;;;;;;10.35;7.78;;;10.20;99.90;;;;;;5011610;28;20203;-60
2020/12/06 06:56:51;;;;;;;8.68;6.20;;;10.10;99.90;;;;;;5010515;28;20575;-61
2020/12/06 06:59:37;;;;;;;6.43;4.90;;;10.10;99.90;;;;;;5016380;28;20244;-60
2020/12/06 07:02:07;;;;;;;6.03;5.53;;;10.30;99.90;;;;;;5012005;28;20257;-60
2020/12/06 07:04:34;;;;;;;6.07;5.22;;;10.10;99.90;;;;;;5015516;28;20214;-61
2020/12/06 07:07:00;;;;;;;7.63;5.45;;;10.20;99.90;;;;;;5012640;28;20441;-59
2020/12/06 07:09:38;;;;;;;10.02;5.90;;;10.20;99.90;;;;;;5019974;28;20208;-60
2020/12/06 07:12:07;;;;;;;9.57;6.05;;;10.20;99.90;;;;;;5013061;28;20412;-60
2020/12/06 07:14:34;;;;;;;9.40;5.80;;;10.20;99.90;;;;;;5013811;28;20400;-60
2020/12/06 07:17:00;;;;;;;11.45;8.13;;;10.10;99.90;;;;;;5010799;28;20408;-61
2020/12/06 07:19:27;;;;;;;9.07;6.05;;;10.20;99.90;;;;;;5018739;28;20207;-62
2020/12/06 07:21:54;;;;;;;10.52;7.13;;;10.30;99.90;;;;;;5012381;28;20219;-61
2020/12/06 07:24:37;;;;;;;8.82;6.25;;;10.30;99.90;;;;;;5008027;28;20331;-61
2020/12/06 07:27:05;;;;;;;9.77;5.55;;;10.40;99.90;;;;;;5011780;28;20242;-61
2020/12/06 07:33:23;;;;;;;15.80;8.05;;;10.50;99.90;;;;;;5014736;28;20238;-59
2020/12/06 07:35:49;;;;;;;8.65;6.35;;;10.40;99.90;;;;;;5009749;28;20573;-59
2020/12/06 07:38:16;;;;;;;8.90;6.50;;;10.70;99.90;;;;;;5016609;28;20509;-58
2020/12/06 07:40:42;;;;;;;10.07;6.75;;;10.70;99.90;;;;;;5015840;28;20212;-59
2020/12/06 07:43:14;;;;;;;8.02;5.80;;;10.80;99.90;;;;;;5016096;28;20212;-60
2020/12/06 07:45:40;;;;;;;8.50;5.88;;;10.70;99.90;;;;;;5010026;28;20462;-61
2020/12/06 07:48:07;;;;;;;7.85;6.40;;;10.80;99.90;;;;;;5018412;28;20305;-59
2020/12/06 07:50:44;;;;;;;14.38;8.40;;;10.70;99.90;;;;;;5007189;28;20279;-60
2020/12/06 07:53:10;;;;;;;8.88;7.72;;;10.60;99.90;;;;;;5015641;28;20238;-59
2020/12/06 07:55:37;;;;;;;7.20;6.10;;;10.80;99.90;;;;;;5013371;28;20501;-60
2020/12/06 07:58:10;;;;;;;10.35;6.43;;;10.60;99.90;;;;;;5011264;28;20549;-58
2020/12/06 08:00:38;;;;;;;10.27;5.70;;;10.70;99.90;;;;;;5010142;28;20254;-59
2020/12/06 08:03:06;;;;;;;9.60;6.70;;;10.70;99.90;;;;;;5010254;28;20214;-59
2020/12/06 08:05:40;;;;;;;7.82;6.18;;;10.70;99.90;;;;;;5012567;28;20426;-60
2020/12/06 08:08:20;;;;;;;6.82;5.88;;;10.70;99.90;;;;;;5016540;28;20545;-59
2020/12/06 08:10:51;;;;;;;10.60;6.63;;;10.70;99.90;;;;;;5016648;28;20220;-59
2020/12/06 08:13:18;;;;;;;6.78;6.05;;;10.60;99.90;;;;;;5013003;28;20423;-59
2020/12/06 08:15:46;;;;;;;9.40;6.22;;;10.80;99.90;;;;;;5009154;28;20252;-59
2020/12/06 08:18:14;;;;;;;9.85;5.95;;;10.80;99.90;;;;;;5016126;28;20214;-59
2020/12/06 08:20:51;;;;;;;9.25;7.35;;;10.80;99.90;;;;;;5016780;28;20423;-59
2020/12/06 08:23:29;;;;;;;8.45;5.65;;;10.90;99.90;;;;;;5014552;28;20207;-59
2020/12/06 08:25:55;;;;;;;7.10;6.43;;;10.90;99.90;;;;;;5010221;28;20211;-59
2020/12/06 08:28:22;;;;;;;13.70;8.63;;;11.00;99.90;;;;;;5012200;28;20204;-62
2020/12/06 08:30:53;;;;;;;8.45;7.00;;;10.90;99.90;;;;;;5006074;28;20275;-59
2020/12/06 08:33:27;;;;;;;10.90;7.47;;;10.90;99.90;;;;;;5018330;28;20220;-59
2020/12/06 08:35:57;;;;;;;13.45;8.27;;;10.80;99.90;;;;;;5010569;28;20276;-60
2020/12/06 08:38:26;;;;;;;8.38;6.78;;;10.90;99.90;;;;;;5012890;28;20203;-60
2020/12/06 08:41:08;;;;;;;9.85;6.28;;;10.80;99.90;;;;;;5012537;28;20227;-60
2020/12/06 08:43:44;;;;;;;9.65;6.68;;;10.80;99.90;;;;;;5011462;28;20222;-60
2020/12/06 08:46:12;;;;;;;10.90;6.20;;;11.00;99.90;;;;;;5014719;28;20246;-60
2020/12/06 08:48:40;;;;;;;6.10;5.25;;;11.00;99.90;;;;;;5011198;28;20243;-60
2020/12/06 08:51:35;;;;;;;12.05;6.85;;;11.10;99.90;;;;;;5012707;28;20208;-59
2020/12/06 08:54:07;;;;;;;7.13;5.13;;;11.10;99.90;;;;;;5003658;28;20280;-59
2020/12/06 08:56:38;;;;;;;7.18;5.22;;;11.00;99.90;;;;;;5014619;28;20263;-59
2020/12/06 08:59:05;;;;;;;10.52;6.95;;;11.10;99.90;;;;;;5012825;28;20212;-59
2020/12/06 09:01:32;;;;;;;12.73;6.90;;;11.10;99.90;;;;;;5014272;28;20400;-59
2020/12/06 09:03:59;;;;;;;12.80;6.80;;;11.10;99.90;;;;;;5018492;28;20207;-59
2020/12/06 09:06:26;;;;;;;7.70;5.63;;;11.10;99.90;;;;;;5010917;28;20211;-60
2020/12/06 09:08:53;;;;;;;8.40;5.97;;;11.10;99.90;;;;;;5005027;28;20208;-59
2020/12/06 09:11:21;;;;;;;9.43;6.43;;;11.20;99.90;;;;;;5008199;28;20247;-60
2020/12/06 09:13:48;;;;;;;9.48;6.10;;;11.20;99.90;;;;;;4999075;28;20553;-59
2020/12/06 09:16:14;;;;;;;8.23;6.93;;;11.30;99.90;;;;;;4999366;28;20213;-59
2020/12/06 09:18:41;;;;;;;10.73;6.70;;;11.30;99.90;;;;;;5000819;28;20224;-60
2020/12/06 09:21:09;;;;;;;11.65;7.50;;;11.40;99.90;;;;;;5007281;28;20213;-59
2020/12/06 09:23:38;;;;;;;7.43;5.70;;;11.40;99.90;;;;;;5001112;28;20425;-59
2020/12/06 09:26:05;;;;;;;10.25;7.20;;;11.40;99.90;;;;;;4999353;28;20417;-59
2020/12/06 09:28:32;;;;;;;11.32;7.93;;;11.50;99.90;;;;;;4998867;28;20562;-59
2020/12/06 09:31:00;;;;;;;12.98;6.03;;;11.50;99.90;;;;;;4998958;28;20212;-60
2020/12/06 09:33:26;;;;;;;9.82;6.70;;;11.50;99.90;;;;;;4985851;28;20232;-59
2020/12/06 09:35:53;;;;;;;8.38;6.65;;;11.60;99.90;;;;;;4998172;28;20233;-59
2020/12/06 09:38:21;;;;;;;8.40;5.88;;;11.60;99.90;;;;;;4998532;28;20404;-59
2020/12/06 09:40:47;;;;;;;15.00;6.88;;;11.60;99.90;;;;;;5008233;28;20210;-60
2020/12/06 09:43:14;;;;;;;12.82;6.90;;;11.70;99.90;;;;;;4989366;28;20242;-59
2020/12/06 09:45:42;;;;;;;8.23;5.38;;;11.60;99.90;;;;;;4999244;28;20208;-59
2020/12/06 09:48:13;;;;;;;6.97;6.22;;;11.60;99.90;;;;;;5010407;28;20245;-59
2020/12/06 09:50:40;;;;;;;6.85;4.80;;;11.60;99.90;;;;;;5001223;28;20197;-59
2020/12/06 09:53:06;;;;;;;9.00;6.10;;;11.70;99.90;;;;;;5012315;28;20232;-60
2020/12/06 09:55:33;;;;;;;8.48;5.70;;;11.70;99.90;;;;;;4998103;28;20218;-60
2020/12/06 09:58:00;;;;;;;8.95;6.15;;;11.70;99.90;;;;;;5001965;28;20459;-60
2020/12/06 10:00:26;;;;;;;8.85;6.22;;;11.70;99.90;;;;;;5007902;28;20235;-59
2020/12/06 10:02:53;;;;;;;12.25;6.47;;;11.80;99.90;;;;;;5000652;28;20263;-60
2020/12/06 10:05:20;;;;;;;8.77;6.88;;;11.80;99.90;;;;;;5004517;28;20217;-59
2020/12/06 10:07:47;;;;;;;10.52;6.50;;;11.80;99.90;;;;;;5001980;28;20241;-60
2020/12/06 10:10:13;;;;;;;11.77;7.00;;;11.90;99.90;;;;;;4998796;28;20308;-59
2020/12/06 10:12:40;;;;;;;10.13;6.30;;;11.90;99.90;;;;;;5002204;28;20232;-59
2020/12/06 10:15:07;;;;;;;8.70;6.32;;;11.90;99.90;;;;;;5003885;28;20231;-59
2020/12/06 10:17:34;;;;;;;6.75;6.13;;;11.90;99.90;;;;;;5013237;28;20561;-59
2020/12/06 10:20:01;;;;;;;12.63;7.18;;;12.00;99.90;;;;;;5004299;28;20213;-60
2020/12/06 10:22:28;;;;;;;11.27;6.55;;;12.00;99.90;;;;;;4990945;28;20227;-59
2020/12/06 10:25:05;;;;;;;9.30;6.10;;;12.00;99.90;;;;;;5002388;28;20243;-59
2020/12/06 10:27:32;;;;;;;12.45;6.57;;;12.00;99.90;;;;;;5001604;28;20566;-60
2020/12/06 10:29:58;;;;;;;8.25;6.32;;;12.10;99.90;;;;;;5002279;28;20213;-60
2020/12/06 10:32:25;;;;;;;9.88;7.05;;;12.10;99.90;;;;;;5001536;28;20250;-60
2020/12/06 10:34:51;;;;;;;6.35;5.25;;;12.30;99.90;;;;;;5004098;28;20213;-60
2020/12/06 10:37:18;;;;;;;8.00;5.32;;;12.30;99.90;;;;;;5003950;28;20266;-60
2020/12/06 10:39:46;;;;;;;7.70;5.68;;;12.30;99.90;;;;;;5002509;28;20220;-59
2020/12/06 10:42:13;;;;;;;7.55;5.72;;;12.40;99.90;;;;;;4986708;28;20369;-59
2020/12/06 10:44:41;;;;;;;12.02;6.03;;;12.50;99.90;;;;;;5005179;28;20512;-59
2020/12/06 10:47:09;;;;;;;7.07;5.22;;;12.50;99.90;;;;;;5012508;28;20228;-60
2020/12/06 10:49:42;;;;;;;8.10;6.25;;;12.60;99.90;;;;;;5012386;28;20229;-60
2020/12/06 10:52:10;;;;;;;9.55;5.30;;;12.60;99.90;;;;;;5019146;28;20466;-60
2020/12/06 10:54:38;;;;;;;8.82;5.43;;;12.60;99.90;;;;;;5002173;28;20503;-59
2020/12/06 10:57:05;;;;;;;10.13;4.88;;;12.60;99.90;;;;;;5000356;28;20216;-59
2020/12/06 10:59:32;;;;;;;8.02;5.70;;;12.60;99.90;;;;;;5006951;28;20554;-59
2020/12/06 11:02:03;;;;;;;8.02;6.63;;;12.50;99.90;;;;;;5009752;28;20407;-60
2020/12/06 11:04:30;;;;;;;9.20;6.68;;;12.50;99.90;;;;;;5005386;28;20205;-59
2020/12/06 11:06:58;;;;;;;8.43;5.70;;;12.50;99.90;;;;;;5006537;28;20241;-59
2020/12/06 11:09:25;;;;;;;20.30;8.40;;;12.40;99.90;;;;;;5000547;28;20217;-59
2020/12/06 11:11:53;;;;;;;7.90;6.53;;;12.50;99.90;;;;;;5003576;28;20209;-59
2020/12/06 11:14:20;;;;;;;10.18;6.55;;;12.50;99.90;;;;;;5001153;28;20252;-60
2020/12/06 11:16:51;;;;;;;11.88;6.72;;;12.50;99.90;;;;;;5014326;28;20257;-61
2020/12/06 11:19:18;;;;;;;7.03;5.10;;;12.40;99.90;;;;;;5001603;28;20216;-59
2020/12/06 11:21:45;;;;;;;8.65;5.97;;;12.40;99.90;;;;;;5015692;28;20263;-60
2020/12/06 11:24:12;;;;;;;6.28;5.15;;;12.30;99.90;;;;;;5006709;28;20383;-60
2020/12/06 11:26:39;;;;;;;5.88;5.25;;;12.30;99.90;;;;;;5016408;28;20209;-60
2020/12/06 11:29:05;;;;;;;18.13;5.70;;;12.30;99.90;;;;;;5014774;28;20228;-59
2020/12/06 11:31:32;;;;;;;11.73;6.45;;;12.20;99.90;;;;;;5000906;28;20209;-59
2020/12/06 11:33:59;;;;;;;6.82;5.18;;;12.30;99.90;;;;;;5000824;28;20412;-59
2020/12/06 11:36:25;;;;;;;11.68;6.22;;;12.20;99.90;;;;;;5000914;28;20554;-59
2020/12/06 11:38:52;;;;;;;9.18;7.05;;;12.20;99.90;;;;;;5001951;28;20217;-60
2020/12/06 11:41:18;;;;;;;10.80;5.60;;;12.10;99.90;;;;;;5006153;28;20221;-59
2020/12/06 11:43:45;;;;;;;7.53;5.50;;;12.10;99.90;;;;;;5010001;28;20205;-59
2020/12/06 11:46:11;;;;;;;7.93;6.10;;;12.20;99.90;;;;;;5003801;28;20334;-59
2020/12/06 11:48:38;;;;;;;11.38;7.15;;;12.20;99.90;;;;;;5019284;28;20246;-61
2020/12/06 11:51:04;;;;;;;8.32;5.90;;;12.10;99.90;;;;;;5005730;28;20276;-60
2020/12/06 11:53:31;;;;;;;8.40;5.65;;;12.30;99.90;;;;;;5001113;28;20435;-59
2020/12/06 11:55:58;;;;;;;9.50;6.13;;;12.40;99.90;;;;;;4984725;28;20217;-60
2020/12/06 11:58:24;;;;;;;6.60;5.45;;;12.30;99.90;;;;;;5001454;28;20865;-60
2020/12/06 12:00:51;;;;;;;8.70;6.25;;;12.50;99.90;;;;;;4999442;28;20535;-60
2020/12/06 12:03:18;;;;;;;7.70;5.63;;;12.30;99.90;;;;;;5000726;28;20209;-59
2020/12/06 12:05:46;;;;;;;6.55;4.47;;;12.30;99.90;;;;;;4974069;28;20436;-58
2020/12/06 12:08:13;;;;;;;7.63;5.22;;;12.20;99.90;;;;;;4999835;28;20376;-60
2020/12/06 12:10:40;;;;;;;9.95;6.13;;;12.20;99.90;;;;;;5000378;28;20206;-59
2020/12/06 12:13:06;;;;;;;8.30;6.70;;;12.10;99.90;;;;;;5000081;28;20275;-59
2020/12/06 12:15:33;;;;;;;9.55;5.47;;;12.10;99.90;;;;;;5013006;28;20492;-58
2020/12/06 12:18:00;;;;;;;11.05;6.18;;;12.20;99.90;;;;;;5012037;28;20233;-61
2020/12/06 12:20:26;;;;;;;16.15;6.10;;;12.10;99.90;;;;;;5015005;28;20204;-61
2020/12/06 12:22:53;;;;;;;9.02;5.32;;;12.10;99.90;;;;;;5010208;28;20224;-57
2020/12/06 12:25:20;;;;;;;12.48;6.38;;;12.20;99.90;;;;;;5000433;28;20419;-60
2020/12/06 12:27:46;;;;;;;11.30;7.25;;;12.00;99.90;;;;;;4999871;28;20205;-58
2020/12/06 12:30:13;;;;;;;10.13;6.70;;;12.00;99.90;;;;;;5000369;28;20209;-59
2020/12/06 12:32:40;;;;;;;9.88;6.20;;;12.00;99.90;;;;;;4999647;28;20240;-59
2020/12/06 12:35:07;;;;;;;9.25;6.40;;;11.80;99.90;;;;;;5005451;28;20224;-60
2020/12/06 12:37:34;;;;;;;14.10;6.15;;;11.90;99.90;;;;;;5000748;28;20286;-60
2020/12/06 12:40:02;;;;;;;11.95;7.13;;;12.00;99.90;;;;;;5008007;28;20213;-59
2020/12/06 12:42:29;;;;;;;11.00;7.45;;;11.70;99.90;;;;;;4999387;28;20274;-60
2020/12/06 12:44:56;;;;;;;13.32;7.15;;;11.70;99.90;;;;;;5005087;28;20208;-59
2020/12/06 12:47:27;;;;;;;12.45;6.32;;;11.90;99.90;;;;;;5006711;28;20284;-59
2020/12/06 12:49:54;;;;;;;11.68;6.55;;;11.90;99.90;;;;;;5016489;28;20216;-59
2020/12/06 12:52:22;;;;;;;11.15;6.03;;;11.80;99.90;;;;;;5014559;28;20238;-59
2020/12/06 12:54:48;;;;;;;8.10;6.00;;;11.90;99.90;;;;;;5013500;28;20216;-59